Savannah, Georgia
Current Conditions -  °F | °C
As of 4:58 AM on Saturday 25 Oct 2014 (Local Time) from KSVN Reporting Station
Clear Clear  
Wind Chill: 45°   Ceiling: Unl
Heat Index: 47°   Visibility: 10mi
Dew Point: 46°   Wind: 5mph
Humidity: 95%   Direction: 260°W
Pressure: 29.98"   Gusts: NA
Location:  32.08°N, 81.09°W
Report Text: KSVN 250858Z AUTO 26004KT 10SM CLR 08/08 A2998 RMK AO2 SLP155 T00840076 55001
Loading
Personal Weather Stations






























Interactive Weather Map New forecast layout! Learn more

10-Day Weather Forecast

Advertisements
Track Severe Weather on mobile